sensor_id;sensor_type;location;lat;lon;timestamp;P1;durP1;ratioP1;P2;durP2;ratioP2
64842;SDS011;51310;52.198;5.422;2023-05-07T00:00:02;8.45;;;6.28;;
64842;SDS011;51310;52.198;5.422;2023-05-07T00:02:33;10.63;;;6.22;;
64842;SDS011;51310;52.198;5.422;2023-05-07T00:04:59;10.82;;;6.25;;
64842;SDS011;51310;52.198;5.422;2023-05-07T00:07:24;8.50;;;5.63;;
64842;SDS011;51310;52.198;5.422;2023-05-07T00:09:50;9.32;;;6.05;;
64842;SDS011;51310;52.198;5.422;2023-05-07T00:12:16;8.82;;;6.20;;
64842;SDS011;51310;52.198;5.422;2023-05-07T00:14:41;11.70;;;6.18;;
64842;SDS011;51310;52.198;5.422;2023-05-07T00:17:07;10.50;;;6.13;;
64842;SDS011;51310;52.198;5.422;2023-05-07T00:19:33;9.27;;;6.22;;
64842;SDS011;51310;52.198;5.422;2023-05-07T00:21:59;9.07;;;5.70;;
64842;SDS011;51310;52.198;5.422;2023-05-07T00:24:24;8.20;;;6.00;;
64842;SDS011;51310;52.198;5.422;2023-05-07T00:26:50;9.33;;;6.03;;
64842;SDS011;51310;52.198;5.422;2023-05-07T00:29:16;7.60;;;5.87;;
64842;SDS011;51310;52.198;5.422;2023-05-07T00:31:41;8.30;;;6.05;;
64842;SDS011;51310;52.198;5.422;2023-05-07T00:34:07;7.45;;;5.50;;
64842;SDS011;51310;52.198;5.422;2023-05-07T00:36:33;10.02;;;5.90;;
64842;SDS011;51310;52.198;5.422;2023-05-07T00:38:59;9.35;;;5.65;;
64842;SDS011;51310;52.198;5.422;2023-05-07T00:41:27;11.23;;;5.78;;
64842;SDS011;51310;52.198;5.422;2023-05-07T00:43:52;9.40;;;5.85;;
64842;SDS011;51310;52.198;5.422;2023-05-07T00:46:19;10.40;;;5.72;;
64842;SDS011;51310;52.198;5.422;2023-05-07T00:48:46;9.32;;;5.55;;
64842;SDS011;51310;52.198;5.422;2023-05-07T00:51:13;9.52;;;5.68;;
64842;SDS011;51310;52.198;5.422;2023-05-07T00:53:39;11.07;;;6.00;;
64842;SDS011;51310;52.198;5.422;2023-05-07T00:56:05;9.87;;;6.23;;
64842;SDS011;51310;52.198;5.422;2023-05-07T00:58:32;9.03;;;5.50;;
64842;SDS011;51310;52.198;5.422;2023-05-07T01:00:59;9.23;;;5.82;;
64842;SDS011;51310;52.198;5.422;2023-05-07T01:03:25;10.05;;;6.43;;
64842;SDS011;51310;52.198;5.422;2023-05-07T01:05:51;7.63;;;6.10;;
64842;SDS011;51310;52.198;5.422;2023-05-07T01:08:20;9.15;;;5.68;;
64842;SDS011;51310;52.198;5.422;2023-05-07T01:10:47;8.85;;;5.75;;
64842;SDS011;51310;52.198;5.422;2023-05-07T01:13:13;11.25;;;5.72;;
64842;SDS011;51310;52.198;5.422;2023-05-07T01:15:40;21.23;;;6.10;;
64842;SDS011;51310;52.198;5.422;2023-05-07T01:18:06;7.40;;;6.30;;
64842;SDS011;51310;52.198;5.422;2023-05-07T01:20:32;9.15;;;6.25;;
64842;SDS011;51310;52.198;5.422;2023-05-07T01:22:58;9.18;;;5.43;;
64842;SDS011;51310;52.198;5.422;2023-05-07T01:25:25;9.65;;;6.43;;
64842;SDS011;51310;52.198;5.422;2023-05-07T01:27:51;9.00;;;5.83;;
64842;SDS011;51310;52.198;5.422;2023-05-07T01:30:17;7.57;;;5.97;;
64842;SDS011;51310;52.198;5.422;2023-05-07T01:32:51;10.20;;;5.60;;
64842;SDS011;51310;52.198;5.422;2023-05-07T01:35:40;10.38;;;6.00;;
64842;SDS011;51310;52.198;5.422;2023-05-07T01:38:10;7.80;;;5.70;;
64842;SDS011;51310;52.198;5.422;2023-05-07T01:40:37;10.95;;;5.93;;
64842;SDS011;51310;52.198;5.422;2023-05-07T01:43:03;13.82;;;6.18;;
64842;SDS011;51310;52.198;5.422;2023-05-07T01:45:30;7.32;;;5.75;;
64842;SDS011;51310;52.198;5.422;2023-05-07T01:47:57;8.40;;;5.88;;
64842;SDS011;51310;52.198;5.422;2023-05-07T01:50:24;7.82;;;5.30;;
64842;SDS011;51310;52.198;5.422;2023-05-07T01:52:50;7.75;;;5.47;;
64842;SDS011;51310;52.198;5.422;2023-05-07T01:55:17;7.78;;;5.57;;
64842;SDS011;51310;52.198;5.422;2023-05-07T01:57:43;7.60;;;5.78;;
64842;SDS011;51310;52.198;5.422;2023-05-07T02:00:09;7.97;;;5.85;;
64842;SDS011;51310;52.198;5.422;2023-05-07T02:02:35;8.52;;;5.78;;
64842;SDS011;51310;52.198;5.422;2023-05-07T02:05:01;8.48;;;5.97;;
64842;SDS011;51310;52.198;5.422;2023-05-07T02:07:27;9.48;;;5.80;;
64842;SDS011;51310;52.198;5.422;2023-05-07T02:09:53;9.07;;;5.87;;
64842;SDS011;51310;52.198;5.422;2023-05-07T02:12:20;9.63;;;6.22;;
64842;SDS011;51310;52.198;5.422;2023-05-07T02:14:47;9.18;;;6.82;;
64842;SDS011;51310;52.198;5.422;2023-05-07T02:17:12;9.52;;;6.80;;
64842;SDS011;51310;52.198;5.422;2023-05-07T02:19:38;10.45;;;7.28;;
64842;SDS011;51310;52.198;5.422;2023-05-07T02:22:04;12.27;;;7.53;;
64842;SDS011;51310;52.198;5.422;2023-05-07T02:24:30;10.75;;;7.43;;
64842;SDS011;51310;52.198;5.422;2023-05-07T02:26:55;9.82;;;7.32;;
64842;SDS011;51310;52.198;5.422;2023-05-07T02:29:21;10.03;;;7.17;;
64842;SDS011;51310;52.198;5.422;2023-05-07T02:31:47;12.43;;;7.53;;
64842;SDS011;51310;52.198;5.422;2023-05-07T02:34:17;13.13;;;7.28;;
64842;SDS011;51310;52.198;5.422;2023-05-07T02:36:44;10.63;;;7.05;;
64842;SDS011;51310;52.198;5.422;2023-05-07T02:39:10;8.70;;;7.07;;
64842;SDS011;51310;52.198;5.422;2023-05-07T02:41:37;11.50;;;7.72;;
64842;SDS011;51310;52.198;5.422;2023-05-07T02:44:03;10.23;;;7.78;;
64842;SDS011;51310;52.198;5.422;2023-05-07T02:46:29;10.95;;;7.38;;
64842;SDS011;51310;52.198;5.422;2023-05-07T02:48:54;11.60;;;7.30;;
64842;SDS011;51310;52.198;5.422;2023-05-07T02:51:21;11.07;;;7.03;;
64842;SDS011;51310;52.198;5.422;2023-05-07T02:53:48;11.57;;;7.88;;
64842;SDS011;51310;52.198;5.422;2023-05-07T02:56:14;10.90;;;7.95;;
64842;SDS011;51310;52.198;5.422;2023-05-07T02:58:40;12.50;;;8.40;;
64842;SDS011;51310;52.198;5.422;2023-05-07T03:01:07;11.65;;;8.30;;
64842;SDS011;51310;52.198;5.422;2023-05-07T03:03:33;14.13;;;8.90;;
64842;SDS011;51310;52.198;5.422;2023-05-07T03:06:00;15.30;;;9.73;;
64842;SDS011;51310;52.198;5.422;2023-05-07T03:08:26;12.77;;;9.32;;
64842;SDS011;51310;52.198;5.422;2023-05-07T03:10:52;12.40;;;9.02;;
64842;SDS011;51310;52.198;5.422;2023-05-07T03:13:18;10.98;;;8.80;;
64842;SDS011;51310;52.198;5.422;2023-05-07T03:15:44;14.35;;;9.50;;
64842;SDS011;51310;52.198;5.422;2023-05-07T03:18:10;10.93;;;8.70;;
64842;SDS011;51310;52.198;5.422;2023-05-07T03:20:35;15.53;;;9.63;;
64842;SDS011;51310;52.198;5.422;2023-05-07T03:23:01;14.97;;;9.27;;
64842;SDS011;51310;52.198;5.422;2023-05-07T03:25:28;14.77;;;9.73;;
64842;SDS011;51310;52.198;5.422;2023-05-07T03:27:55;11.88;;;9.10;;
64842;SDS011;51310;52.198;5.422;2023-05-07T03:30:21;11.57;;;8.60;;
64842;SDS011;51310;52.198;5.422;2023-05-07T03:32:47;15.07;;;8.77;;
64842;SDS011;51310;52.198;5.422;2023-05-07T03:35:13;13.07;;;9.43;;
64842;SDS011;51310;52.198;5.422;2023-05-07T03:37:39;17.10;;;10.10;;
64842;SDS011;51310;52.198;5.422;2023-05-07T03:40:05;21.03;;;10.30;;
64842;SDS011;51310;52.198;5.422;2023-05-07T03:42:32;15.00;;;9.25;;
64842;SDS011;51310;52.198;5.422;2023-05-07T03:44:58;16.23;;;9.65;;
64842;SDS011;51310;52.198;5.422;2023-05-07T03:47:24;15.65;;;10.55;;
64842;SDS011;51310;52.198;5.422;2023-05-07T03:49:50;15.20;;;10.80;;
64842;SDS011;51310;52.198;5.422;2023-05-07T03:52:17;13.93;;;10.55;;
64842;SDS011;51310;52.198;5.422;2023-05-07T03:54:47;14.50;;;10.45;;
64842;SDS011;51310;52.198;5.422;2023-05-07T03:57:13;13.73;;;10.32;;
64842;SDS011;51310;52.198;5.422;2023-05-07T03:59:39;14.45;;;10.50;;
64842;SDS011;51310;52.198;5.422;2023-05-07T04:02:04;14.13;;;9.52;;
64842;SDS011;51310;52.198;5.422;2023-05-07T04:04:30;16.80;;;10.23;;
64842;SDS011;51310;52.198;5.422;2023-05-07T04:06:57;14.60;;;10.45;;
64842;SDS011;51310;52.198;5.422;2023-05-07T04:09:24;16.92;;;10.85;;
64842;SDS011;51310;52.198;5.422;2023-05-07T04:11:50;14.67;;;10.73;;
64842;SDS011;51310;52.198;5.422;2023-05-07T04:14:16;14.70;;;10.80;;
64842;SDS011;51310;52.198;5.422;2023-05-07T04:16:41;19.27;;;11.60;;
64842;SDS011;51310;52.198;5.422;2023-05-07T04:19:07;15.90;;;10.90;;
64842;SDS011;51310;52.198;5.422;2023-05-07T04:21:33;14.48;;;10.63;;
64842;SDS011;51310;52.198;5.422;2023-05-07T04:23:58;15.52;;;10.70;;
64842;SDS011;51310;52.198;5.422;2023-05-07T04:26:24;14.40;;;10.05;;
64842;SDS011;51310;52.198;5.422;2023-05-07T04:28:50;15.57;;;10.80;;
64842;SDS011;51310;52.198;5.422;2023-05-07T04:31:16;13.55;;;9.93;;
64842;SDS011;51310;52.198;5.422;2023-05-07T04:33:41;12.30;;;9.47;;
64842;SDS011;51310;52.198;5.422;2023-05-07T04:36:07;15.07;;;10.10;;
64842;SDS011;51310;52.198;5.422;2023-05-07T04:38:33;12.57;;;10.00;;
64842;SDS011;51310;52.198;5.422;2023-05-07T04:41:05;11.80;;;9.43;;
64842;SDS011;51310;52.198;5.422;2023-05-07T04:43:31;12.48;;;9.18;;
64842;SDS011;51310;52.198;5.422;2023-05-07T04:45:57;14.15;;;10.30;;
64842;SDS011;51310;52.198;5.422;2023-05-07T04:48:23;13.75;;;9.38;;
64842;SDS011;51310;52.198;5.422;2023-05-07T04:50:49;15.02;;;10.00;;
64842;SDS011;51310;52.198;5.422;2023-05-07T04:53:16;16.57;;;9.90;;
64842;SDS011;51310;52.198;5.422;2023-05-07T04:55:42;16.45;;;11.20;;
64842;SDS011;51310;52.198;5.422;2023-05-07T04:58:10;18.85;;;11.85;;
64842;SDS011;51310;52.198;5.422;2023-05-07T05:00:37;15.75;;;11.32;;
64842;SDS011;51310;52.198;5.422;2023-05-07T05:03:07;19.15;;;12.45;;
64842;SDS011;51310;52.198;5.422;2023-05-07T05:05:33;16.35;;;11.73;;
64842;SDS011;51310;52.198;5.422;2023-05-07T05:07:59;19.00;;;13.45;;
64842;SDS011;51310;52.198;5.422;2023-05-07T05:10:24;29.05;;;13.75;;
64842;SDS011;51310;52.198;5.422;2023-05-07T05:12:50;20.40;;;13.63;;
64842;SDS011;51310;52.198;5.422;2023-05-07T05:15:16;19.33;;;13.73;;
64842;SDS011;51310;52.198;5.422;2023-05-07T05:17:42;22.50;;;14.83;;
64842;SDS011;51310;52.198;5.422;2023-05-07T05:20:07;23.10;;;14.63;;
64842;SDS011;51310;52.198;5.422;2023-05-07T05:22:35;20.30;;;14.63;;
64842;SDS011;51310;52.198;5.422;2023-05-07T05:25:01;20.15;;;14.93;;
64842;SDS011;51310;52.198;5.422;2023-05-07T05:27:27;19.02;;;14.40;;
64842;SDS011;51310;52.198;5.422;2023-05-07T05:29:53;22.73;;;15.55;;
64842;SDS011;51310;52.198;5.422;2023-05-07T05:32:19;19.83;;;15.38;;
64842;SDS011;51310;52.198;5.422;2023-05-07T05:34:45;21.90;;;16.02;;
64842;SDS011;51310;52.198;5.422;2023-05-07T05:37:10;21.60;;;16.30;;
64842;SDS011;51310;52.198;5.422;2023-05-07T05:39:36;21.90;;;15.07;;
64842;SDS011;51310;52.198;5.422;2023-05-07T05:42:02;21.60;;;15.10;;
64842;SDS011;51310;52.198;5.422;2023-05-07T05:44:27;20.90;;;15.43;;
64842;SDS011;51310;52.198;5.422;2023-05-07T05:46:53;21.97;;;15.57;;
64842;SDS011;51310;52.198;5.422;2023-05-07T05:49:24;22.27;;;15.50;;
64842;SDS011;51310;52.198;5.422;2023-05-07T05:51:50;19.55;;;15.23;;
64842;SDS011;51310;52.198;5.422;2023-05-07T05:54:16;22.23;;;15.23;;
64842;SDS011;51310;52.198;5.422;2023-05-07T05:56:41;19.10;;;15.40;;
64842;SDS011;51310;52.198;5.422;2023-05-07T05:59:07;21.63;;;15.73;;
64842;SDS011;51310;52.198;5.422;2023-05-07T06:01:33;19.53;;;14.90;;
64842;SDS011;51310;52.198;5.422;2023-05-07T06:03:59;17.25;;;13.95;;
64842;SDS011;51310;52.198;5.422;2023-05-07T06:06:25;20.83;;;14.18;;
64842;SDS011;51310;52.198;5.422;2023-05-07T06:08:50;20.10;;;14.38;;
64842;SDS011;51310;52.198;5.422;2023-05-07T06:11:16;21.57;;;14.10;;
64842;SDS011;51310;52.198;5.422;2023-05-07T06:13:42;20.43;;;14.03;;
64842;SDS011;51310;52.198;5.422;2023-05-07T06:16:08;18.50;;;13.53;;
64842;SDS011;51310;52.198;5.422;2023-05-07T06:18:33;19.30;;;14.07;;
64842;SDS011;51310;52.198;5.422;2023-05-07T06:21:01;17.83;;;13.00;;
64842;SDS011;51310;52.198;5.422;2023-05-07T06:23:27;19.23;;;13.57;;
64842;SDS011;51310;52.198;5.422;2023-05-07T06:25:52;22.93;;;14.10;;
64842;SDS011;51310;52.198;5.422;2023-05-07T06:28:18;20.33;;;14.75;;
64842;SDS011;51310;52.198;5.422;2023-05-07T06:30:44;19.35;;;14.38;;
64842;SDS011;51310;52.198;5.422;2023-05-07T06:33:10;19.38;;;13.70;;
64842;SDS011;51310;52.198;5.422;2023-05-07T06:35:35;20.83;;;14.48;;
64842;SDS011;51310;52.198;5.422;2023-05-07T06:38:01;22.63;;;14.70;;
64842;SDS011;51310;52.198;5.422;2023-05-07T06:40:27;17.30;;;14.05;;
64842;SDS011;51310;52.198;5.422;2023-05-07T06:42:52;19.85;;;13.95;;
64842;SDS011;51310;52.198;5.422;2023-05-07T06:45:19;21.73;;;14.17;;
64842;SDS011;51310;52.198;5.422;2023-05-07T06:47:45;19.45;;;14.05;;
64842;SDS011;51310;52.198;5.422;2023-05-07T06:50:11;18.23;;;13.87;;
64842;SDS011;51310;52.198;5.422;2023-05-07T06:52:36;18.23;;;13.20;;
64842;SDS011;51310;52.198;5.422;2023-05-07T06:55:02;16.90;;;13.40;;
64842;SDS011;51310;52.198;5.422;2023-05-07T06:57:28;20.02;;;14.50;;
64842;SDS011;51310;52.198;5.422;2023-05-07T06:59:54;20.13;;;14.00;;
64842;SDS011;51310;52.198;5.422;2023-05-07T07:02:20;19.92;;;14.95;;
64842;SDS011;51310;52.198;5.422;2023-05-07T07:04:45;22.67;;;14.93;;
64842;SDS011;51310;52.198;5.422;2023-05-07T07:07:11;19.97;;;14.83;;
64842;SDS011;51310;52.198;5.422;2023-05-07T07:09:37;19.90;;;14.93;;
64842;SDS011;51310;52.198;5.422;2023-05-07T07:12:02;21.83;;;16.00;;
64842;SDS011;51310;52.198;5.422;2023-05-07T07:14:28;19.93;;;14.90;;
64842;SDS011;51310;52.198;5.422;2023-05-07T07:16:54;19.57;;;15.00;;
64842;SDS011;51310;52.198;5.422;2023-05-07T07:19:20;22.60;;;15.07;;
64842;SDS011;51310;52.198;5.422;2023-05-07T07:21:45;17.77;;;13.55;;
64842;SDS011;51310;52.198;5.422;2023-05-07T07:24:12;18.02;;;14.27;;
64842;SDS011;51310;52.198;5.422;2023-05-07T07:26:43;20.77;;;14.90;;
64842;SDS011;51310;52.198;5.422;2023-05-07T07:29:10;23.00;;;15.32;;
64842;SDS011;51310;52.198;5.422;2023-05-07T07:31:35;19.27;;;14.93;;
64842;SDS011;51310;52.198;5.422;2023-05-07T07:34:01;22.55;;;14.60;;
64842;SDS011;51310;52.198;5.422;2023-05-07T07:36:27;21.25;;;15.20;;
64842;SDS011;51310;52.198;5.422;2023-05-07T07:38:53;19.13;;;14.98;;
64842;SDS011;51310;52.198;5.422;2023-05-07T07:41:19;20.90;;;14.07;;
64842;SDS011;51310;52.198;5.422;2023-05-07T07:43:45;19.83;;;15.00;;
64842;SDS011;51310;52.198;5.422;2023-05-07T07:46:11;20.52;;;14.90;;
64842;SDS011;51310;52.198;5.422;2023-05-07T07:48:37;19.70;;;15.33;;
64842;SDS011;51310;52.198;5.422;2023-05-07T07:51:03;18.38;;;14.32;;
64842;SDS011;51310;52.198;5.422;2023-05-07T07:53:29;19.13;;;14.70;;
64842;SDS011;51310;52.198;5.422;2023-05-07T07:55:55;20.10;;;15.60;;
64842;SDS011;51310;52.198;5.422;2023-05-07T07:58:21;18.23;;;14.48;;
64842;SDS011;51310;52.198;5.422;2023-05-07T08:00:47;19.77;;;15.77;;
64842;SDS011;51310;52.198;5.422;2023-05-07T08:03:13;17.47;;;14.37;;
64842;SDS011;51310;52.198;5.422;2023-05-07T08:05:41;18.88;;;14.50;;
64842;SDS011;51310;52.198;5.422;2023-05-07T08:08:07;21.27;;;14.30;;
64842;SDS011;51310;52.198;5.422;2023-05-07T08:10:34;17.85;;;14.27;;
64842;SDS011;51310;52.198;5.422;2023-05-07T08:13:03;18.75;;;14.70;;
64842;SDS011;51310;52.198;5.422;2023-05-07T08:15:29;20.27;;;14.47;;
64842;SDS011;51310;52.198;5.422;2023-05-07T08:17:55;19.87;;;15.03;;
64842;SDS011;51310;52.198;5.422;2023-05-07T08:20:22;20.80;;;15.45;;
64842;SDS011;51310;52.198;5.422;2023-05-07T08:22:48;22.52;;;16.20;;
64842;SDS011;51310;52.198;5.422;2023-05-07T08:25:14;19.90;;;15.27;;
64842;SDS011;51310;52.198;5.422;2023-05-07T08:27:40;21.80;;;14.90;;
64842;SDS011;51310;52.198;5.422;2023-05-07T08:30:06;20.80;;;14.23;;
64842;SDS011;51310;52.198;5.422;2023-05-07T08:32:32;19.10;;;14.13;;
64842;SDS011;51310;52.198;5.422;2023-05-07T08:34:58;20.80;;;14.77;;
64842;SDS011;51310;52.198;5.422;2023-05-07T08:37:24;18.90;;;14.55;;
64842;SDS011;51310;52.198;5.422;2023-05-07T08:39:50;20.97;;;15.67;;
64842;SDS011;51310;52.198;5.422;2023-05-07T08:42:16;19.00;;;14.27;;
64842;SDS011;51310;52.198;5.422;2023-05-07T08:44:43;19.77;;;15.20;;
64842;SDS011;51310;52.198;5.422;2023-05-07T08:47:13;19.15;;;14.75;;
64842;SDS011;51310;52.198;5.422;2023-05-07T08:49:39;20.83;;;14.95;;
64842;SDS011;51310;52.198;5.422;2023-05-07T08:52:05;19.25;;;14.45;;
64842;SDS011;51310;52.198;5.422;2023-05-07T08:54:31;19.67;;;15.35;;
64842;SDS011;51310;52.198;5.422;2023-05-07T08:56:58;20.55;;;15.07;;
64842;SDS011;51310;52.198;5.422;2023-05-07T08:59:24;19.97;;;15.53;;
64842;SDS011;51310;52.198;5.422;2023-05-07T09:01:50;19.75;;;14.38;;
64842;SDS011;51310;52.198;5.422;2023-05-07T09:04:16;21.00;;;15.25;;
64842;SDS011;51310;52.198;5.422;2023-05-07T09:06:42;18.92;;;14.95;;
64842;SDS011;51310;52.198;5.422;2023-05-07T09:09:08;22.38;;;16.02;;
64842;SDS011;51310;52.198;5.422;2023-05-07T09:11:33;21.58;;;15.38;;
64842;SDS011;51310;52.198;5.422;2023-05-07T09:13:59;21.57;;;15.23;;
64842;SDS011;51310;52.198;5.422;2023-05-07T09:16:29;22.67;;;15.43;;
64842;SDS011;51310;52.198;5.422;2023-05-07T09:18:56;20.83;;;14.85;;
64842;SDS011;51310;52.198;5.422;2023-05-07T09:21:24;20.67;;;15.02;;
64842;SDS011;51310;52.198;5.422;2023-05-07T09:23:51;20.55;;;15.45;;
64842;SDS011;51310;52.198;5.422;2023-05-07T09:26:19;20.80;;;15.25;;
64842;SDS011;51310;52.198;5.422;2023-05-07T09:28:47;18.67;;;14.27;;
64842;SDS011;51310;52.198;5.422;2023-05-07T09:31:12;18.53;;;14.07;;
64842;SDS011;51310;52.198;5.422;2023-05-07T09:33:38;20.90;;;14.17;;
64842;SDS011;51310;52.198;5.422;2023-05-07T09:36:05;16.92;;;12.88;;
64842;SDS011;51310;52.198;5.422;2023-05-07T09:38:34;16.38;;;12.60;;
64842;SDS011;51310;52.198;5.422;2023-05-07T09:41:04;20.87;;;14.00;;
64842;SDS011;51310;52.198;5.422;2023-05-07T09:43:37;19.25;;;13.32;;
64842;SDS011;51310;52.198;5.422;2023-05-07T09:48:42;17.50;;;12.55;;
64842;SDS011;51310;52.198;5.422;2023-05-07T09:51:17;18.73;;;12.23;;
64842;SDS011;51310;52.198;5.422;2023-05-07T09:54:18;18.90;;;12.57;;
64842;SDS011;51310;52.198;5.422;2023-05-07T09:56:44;17.05;;;12.40;;
64842;SDS011;51310;52.198;5.422;2023-05-07T09:59:14;17.08;;;11.70;;
64842;SDS011;51310;52.198;5.422;2023-05-07T10:01:42;15.20;;;11.67;;
64842;SDS011;51310;52.198;5.422;2023-05-07T10:04:10;15.80;;;12.27;;
64842;SDS011;51310;52.198;5.422;2023-05-07T10:06:37;15.57;;;11.35;;
64842;SDS011;51310;52.198;5.422;2023-05-07T10:09:03;13.07;;;9.65;;
64842;SDS011;51310;52.198;5.422;2023-05-07T10:11:31;12.13;;;8.80;;
64842;SDS011;51310;52.198;5.422;2023-05-07T10:13:59;14.55;;;10.55;;
64842;SDS011;51310;52.198;5.422;2023-05-07T10:16:27;15.25;;;10.40;;
64842;SDS011;51310;52.198;5.422;2023-05-07T10:18:57;17.25;;;10.15;;
64842;SDS011;51310;52.198;5.422;2023-05-07T10:21:24;14.50;;;10.10;;
64842;SDS011;51310;52.198;5.422;2023-05-07T10:23:58;14.85;;;9.30;;
64842;SDS011;51310;52.198;5.422;2023-05-07T10:26:42;13.75;;;9.15;;
64842;SDS011;51310;52.198;5.422;2023-05-07T10:29:13;11.68;;;7.57;;
64842;SDS011;51310;52.198;5.422;2023-05-07T10:32:02;10.63;;;7.18;;
64842;SDS011;51310;52.198;5.422;2023-05-07T10:34:45;11.77;;;8.17;;
64842;SDS011;51310;52.198;5.422;2023-05-07T10:37:18;14.77;;;8.52;;
64842;SDS011;51310;52.198;5.422;2023-05-07T10:39:44;15.15;;;8.02;;
64842;SDS011;51310;52.198;5.422;2023-05-07T10:42:11;12.15;;;8.55;;
64842;SDS011;51310;52.198;5.422;2023-05-07T10:44:38;15.93;;;9.15;;
64842;SDS011;51310;52.198;5.422;2023-05-07T10:47:05;12.88;;;8.52;;
64842;SDS011;51310;52.198;5.422;2023-05-07T10:49:38;14.65;;;9.27;;
64842;SDS011;51310;52.198;5.422;2023-05-07T10:52:31;13.52;;;8.57;;
64842;SDS011;51310;52.198;5.422;2023-05-07T10:57:43;14.07;;;9.68;;
64842;SDS011;51310;52.198;5.422;2023-05-07T11:03:04;14.30;;;8.27;;
64842;SDS011;51310;52.198;5.422;2023-05-07T11:05:32;12.00;;;8.70;;
64842;SDS011;51310;52.198;5.422;2023-05-07T11:07:59;12.68;;;9.05;;
64842;SDS011;51310;52.198;5.422;2023-05-07T11:13:45;12.73;;;8.68;;
64842;SDS011;51310;52.198;5.422;2023-05-07T11:16:17;11.55;;;8.38;;
64842;SDS011;51310;52.198;5.422;2023-05-07T11:18:54;10.55;;;8.55;;
64842;SDS011;51310;52.198;5.422;2023-05-07T11:24:07;11.55;;;7.60;;
64842;SDS011;51310;52.198;5.422;2023-05-07T11:26:44;10.75;;;8.65;;
64842;SDS011;51310;52.198;5.422;2023-05-07T11:29:13;13.88;;;9.80;;
64842;SDS011;51310;52.198;5.422;2023-05-07T11:31:51;13.35;;;9.77;;
64842;SDS011;51310;52.198;5.422;2023-05-07T11:34:22;12.90;;;9.40;;
64842;SDS011;51310;52.198;5.422;2023-05-07T11:36:50;19.45;;;9.45;;
64842;SDS011;51310;52.198;5.422;2023-05-07T11:39:23;13.43;;;9.30;;
64842;SDS011;51310;52.198;5.422;2023-05-07T11:41:53;13.18;;;8.95;;
64842;SDS011;51310;52.198;5.422;2023-05-07T11:44:19;13.77;;;9.10;;
64842;SDS011;51310;52.198;5.422;2023-05-07T11:46:45;13.87;;;9.77;;
64842;SDS011;51310;52.198;5.422;2023-05-07T11:49:11;15.27;;;9.70;;
64842;SDS011;51310;52.198;5.422;2023-05-07T11:51:37;15.32;;;9.55;;
64842;SDS011;51310;52.198;5.422;2023-05-07T11:54:05;11.10;;;8.50;;
64842;SDS011;51310;52.198;5.422;2023-05-07T11:56:36;14.50;;;9.88;;
64842;SDS011;51310;52.198;5.422;2023-05-07T11:59:03;13.70;;;9.93;;
64842;SDS011;51310;52.198;5.422;2023-05-07T12:01:29;13.02;;;9.60;;
64842;SDS011;51310;52.198;5.422;2023-05-07T12:03:54;15.90;;;10.57;;
64842;SDS011;51310;52.198;5.422;2023-05-07T12:06:20;18.77;;;11.25;;
64842;SDS011;51310;52.198;5.422;2023-05-07T12:08:46;13.68;;;9.77;;
64842;SDS011;51310;52.198;5.422;2023-05-07T12:11:15;16.83;;;10.73;;
64842;SDS011;51310;52.198;5.422;2023-05-07T12:13:48;14.30;;;10.13;;
64842;SDS011;51310;52.198;5.422;2023-05-07T12:16:13;13.60;;;10.30;;
64842;SDS011;51310;52.198;5.422;2023-05-07T12:18:40;13.70;;;10.10;;
64842;SDS011;51310;52.198;5.422;2023-05-07T12:21:06;13.98;;;10.07;;
64842;SDS011;51310;52.198;5.422;2023-05-07T12:23:33;15.18;;;9.75;;
64842;SDS011;51310;52.198;5.422;2023-05-07T12:26:01;13.45;;;10.25;;
64842;SDS011;51310;52.198;5.422;2023-05-07T12:28:27;15.07;;;9.73;;
64842;SDS011;51310;52.198;5.422;2023-05-07T12:30:53;13.73;;;9.70;;
64842;SDS011;51310;52.198;5.422;2023-05-07T12:33:23;12.65;;;8.90;;
64842;SDS011;51310;52.198;5.422;2023-05-07T12:35:52;13.38;;;9.20;;
64842;SDS011;51310;52.198;5.422;2023-05-07T12:38:21;15.45;;;8.38;;
64842;SDS011;51310;52.198;5.422;2023-05-07T12:40:48;9.57;;;6.40;;
64842;SDS011;51310;52.198;5.422;2023-05-07T12:43:23;8.60;;;6.13;;
64842;SDS011;51310;52.198;5.422;2023-05-07T12:45:52;11.98;;;7.57;;
64842;SDS011;51310;52.198;5.422;2023-05-07T12:48:21;13.07;;;7.57;;
64842;SDS011;51310;52.198;5.422;2023-05-07T12:50:51;9.63;;;6.22;;
64842;SDS011;51310;52.198;5.422;2023-05-07T12:53:20;10.13;;;7.78;;
64842;SDS011;51310;52.198;5.422;2023-05-07T12:55:48;6.88;;;5.10;;
64842;SDS011;51310;52.198;5.422;2023-05-07T12:58:17;13.77;;;7.20;;
64842;SDS011;51310;52.198;5.422;2023-05-07T13:00:55;10.70;;;6.95;;
64842;SDS011;51310;52.198;5.422;2023-05-07T13:03:27;10.45;;;7.18;;
64842;SDS011;51310;52.198;5.422;2023-05-07T13:06:07;12.85;;;7.30;;
64842;SDS011;51310;52.198;5.422;2023-05-07T13:08:39;13.00;;;7.15;;
64842;SDS011;51310;52.198;5.422;2023-05-07T13:11:08;13.85;;;7.32;;
64842;SDS011;51310;52.198;5.422;2023-05-07T13:13:35;10.55;;;6.13;;
64842;SDS011;51310;52.198;5.422;2023-05-07T13:16:04;10.60;;;6.45;;
64842;SDS011;51310;52.198;5.422;2023-05-07T13:18:31;14.38;;;6.10;;
64842;SDS011;51310;52.198;5.422;2023-05-07T13:20:58;11.03;;;6.30;;
64842;SDS011;51310;52.198;5.422;2023-05-07T13:23:26;9.30;;;6.63;;
64842;SDS011;51310;52.198;5.422;2023-05-07T13:25:52;9.18;;;6.45;;
64842;SDS011;51310;52.198;5.422;2023-05-07T13:28:22;11.05;;;6.80;;
64842;SDS011;51310;52.198;5.422;2023-05-07T13:30:51;13.23;;;7.80;;
64842;SDS011;51310;52.198;5.422;2023-05-07T13:33:17;9.40;;;6.60;;
64842;SDS011;51310;52.198;5.422;2023-05-07T13:35:44;11.47;;;7.10;;
64842;SDS011;51310;52.198;5.422;2023-05-07T13:38:10;13.65;;;8.07;;
64842;SDS011;51310;52.198;5.422;2023-05-07T13:40:35;11.27;;;7.80;;
64842;SDS011;51310;52.198;5.422;2023-05-07T13:43:01;11.45;;;7.60;;
64842;SDS011;51310;52.198;5.422;2023-05-07T13:45:27;12.60;;;8.55;;
64842;SDS011;51310;52.198;5.422;2023-05-07T13:47:54;15.32;;;7.65;;
64842;SDS011;51310;52.198;5.422;2023-05-07T13:50:21;10.15;;;7.30;;
64842;SDS011;51310;52.198;5.422;2023-05-07T13:52:47;12.77;;;7.67;;
64842;SDS011;51310;52.198;5.422;2023-05-07T13:55:19;11.88;;;8.05;;
64842;SDS011;51310;52.198;5.422;2023-05-07T13:57:47;16.63;;;9.50;;
64842;SDS011;51310;52.198;5.422;2023-05-07T14:00:19;11.30;;;8.40;;
64842;SDS011;51310;52.198;5.422;2023-05-07T14:02:45;11.50;;;8.87;;
64842;SDS011;51310;52.198;5.422;2023-05-07T14:05:10;15.93;;;9.80;;
64842;SDS011;51310;52.198;5.422;2023-05-07T14:07:36;14.60;;;8.37;;
64842;SDS011;51310;52.198;5.422;2023-05-07T14:10:02;12.10;;;8.10;;
64842;SDS011;51310;52.198;5.422;2023-05-07T14:12:28;12.45;;;9.32;;
64842;SDS011;51310;52.198;5.422;2023-05-07T14:14:54;18.67;;;10.07;;
64842;SDS011;51310;52.198;5.422;2023-05-07T14:17:19;12.35;;;9.20;;
64842;SDS011;51310;52.198;5.422;2023-05-07T14:19:45;12.63;;;9.32;;
64842;SDS011;51310;52.198;5.422;2023-05-07T14:22:12;14.38;;;9.60;;
64842;SDS011;51310;52.198;5.422;2023-05-07T14:24:40;17.83;;;9.82;;
64842;SDS011;51310;52.198;5.422;2023-05-07T14:27:05;15.10;;;9.02;;
64842;SDS011;51310;52.198;5.422;2023-05-07T14:29:31;13.23;;;10.13;;
64842;SDS011;51310;52.198;5.422;2023-05-07T14:31:57;13.75;;;10.00;;
64842;SDS011;51310;52.198;5.422;2023-05-07T14:34:23;16.80;;;10.50;;
64842;SDS011;51310;52.198;5.422;2023-05-07T14:36:49;14.45;;;10.60;;
64842;SDS011;51310;52.198;5.422;2023-05-07T14:39:14;17.08;;;10.70;;
64842;SDS011;51310;52.198;5.422;2023-05-07T14:41:40;16.63;;;10.87;;
64842;SDS011;51310;52.198;5.422;2023-05-07T14:44:06;16.67;;;10.70;;